Terminal Aerodrome Forecast
Issued by NWS

Home | Current Version | Previous Version | Text Only | Print | Product List | Glossary On
Versions: 1 2 3 4 5 6 7 8 9 10 11 12 13 14 15 16 17 18 19 20 21 22 23 24 25 26 27 28 29 30 31 32
000
FTUS43 KDVN 271601 AAD
TAFCID
TAF AMD
KCID 271601Z 2716/2812 25011KT P6SM SCT015
     FM271700 28010KT P6SM SCT035
     FM272300 23005KT P6SM FEW050
     FM280300 17003KT P6SM SKC=

USA.gov is the U.S. government's official web portal to all federal, state and local government web resources and services.